Terminal Aerodrome Forecast
Issued by NWS

Home | Current Version | Previous Version | Text Only | Print | Product List | Glossary On
Versions: 1 2 3 4 5 6 7 8 9 10 11 12 13 14 15 16 17 18 19 20 21 22 23 24
000
FTUS41 KBTV 221055 AAB
TAFMSS
TAF AMD
KMSS 221055Z 2211/2306 05009KT 1 1/2SM BR OVC002
      TEMPO 2211/2215 2SM BR OVC005
     FM221500 06006KT 6SM BR OVC007
     FM221900 06010G16KT P6SM OVC020=

USA.gov is the U.S. government's official web portal to all federal, state and local government web resources and services.